sensor_id;sensor_type;location;lat;lon;timestamp;temperature;humidity
65462;DHT22;53236;43.666;18.444;2023-08-07T00:00:51;11.20;99.90
65462;DHT22;53236;43.666;18.444;2023-08-07T00:03:16;11.20;99.90
65462;DHT22;53236;43.666;18.444;2023-08-07T00:05:48;11.20;99.90
65462;DHT22;53236;43.666;18.444;2023-08-07T00:08:14;11.10;99.90
65462;DHT22;53236;43.666;18.444;2023-08-07T00:10:39;11.10;99.90
65462;DHT22;53236;43.666;18.444;2023-08-07T00:13:06;11.10;99.90
65462;DHT22;53236;43.666;18.444;2023-08-07T00:15:31;11.10;99.90
65462;DHT22;53236;43.666;18.444;2023-08-07T00:17:59;11.10;99.90
65462;DHT22;53236;43.666;18.444;2023-08-07T00:20:25;11.20;99.90
65462;DHT22;53236;43.666;18.444;2023-08-07T00:22:51;11.20;99.90
65462;DHT22;53236;43.666;18.444;2023-08-07T00:25:17;11.30;99.90
65462;DHT22;53236;43.666;18.444;2023-08-07T00:27:43;11.30;99.90
65462;DHT22;53236;43.666;18.444;2023-08-07T00:30:09;11.30;99.90
65462;DHT22;53236;43.666;18.444;2023-08-07T00:32:35;11.30;99.90
65462;DHT22;53236;43.666;18.444;2023-08-07T00:35:00;11.30;99.90
65462;DHT22;53236;43.666;18.444;2023-08-07T00:37:26;11.30;99.90
65462;DHT22;53236;43.666;18.444;2023-08-07T00:39:52;11.40;99.90
65462;DHT22;53236;43.666;18.444;2023-08-07T00:42:18;11.50;99.90
65462;DHT22;53236;43.666;18.444;2023-08-07T00:44:43;11.40;99.90
65462;DHT22;53236;43.666;18.444;2023-08-07T00:47:09;11.50;99.90
65462;DHT22;53236;43.666;18.444;2023-08-07T00:49:35;11.50;99.90
65462;DHT22;53236;43.666;18.444;2023-08-07T00:52:01;11.50;99.90
65462;DHT22;53236;43.666;18.444;2023-08-07T00:54:27;11.50;99.90
65462;DHT22;53236;43.666;18.444;2023-08-07T00:56:53;11.60;99.90
65462;DHT22;53236;43.666;18.444;2023-08-07T00:59:19;11.60;99.90
65462;DHT22;53236;43.666;18.444;2023-08-07T01:01:45;11.60;99.90
65462;DHT22;53236;43.666;18.444;2023-08-07T01:04:11;11.60;99.90
65462;DHT22;53236;43.666;18.444;2023-08-07T01:06:37;11.60;99.90
65462;DHT22;53236;43.666;18.444;2023-08-07T01:09:03;11.70;99.90
65462;DHT22;53236;43.666;18.444;2023-08-07T01:11:36;11.70;99.90
65462;DHT22;53236;43.666;18.444;2023-08-07T01:14:58;11.60;99.90
65462;DHT22;53236;43.666;18.444;2023-08-07T01:17:30;11.60;99.90
65462;DHT22;53236;43.666;18.444;2023-08-07T01:19:59;11.70;99.90
65462;DHT22;53236;43.666;18.444;2023-08-07T01:22:25;11.60;99.90
65462;DHT22;53236;43.666;18.444;2023-08-07T01:24:51;11.60;99.90
65462;DHT22;53236;43.666;18.444;2023-08-07T01:30:00;11.60;99.90
65462;DHT22;53236;43.666;18.444;2023-08-07T01:35:23;11.70;99.90
65462;DHT22;53236;43.666;18.444;2023-08-07T01:37:53;11.70;99.90
65462;DHT22;53236;43.666;18.444;2023-08-07T01:40:21;11.70;99.90
65462;DHT22;53236;43.666;18.444;2023-08-07T01:42:47;11.70;99.90
65462;DHT22;53236;43.666;18.444;2023-08-07T01:45:13;11.70;99.90
65462;DHT22;53236;43.666;18.444;2023-08-07T01:47:39;11.70;99.90
65462;DHT22;53236;43.666;18.444;2023-08-07T01:50:06;11.70;99.90
65462;DHT22;53236;43.666;18.444;2023-08-07T01:52:32;11.70;99.90
65462;DHT22;53236;43.666;18.444;2023-08-07T01:54:58;11.80;99.90
65462;DHT22;53236;43.666;18.444;2023-08-07T01:57:24;11.70;99.90
65462;DHT22;53236;43.666;18.444;2023-08-07T01:59:51;11.70;99.90
65462;DHT22;53236;43.666;18.444;2023-08-07T02:02:17;11.70;99.90
65462;DHT22;53236;43.666;18.444;2023-08-07T02:04:42;11.70;99.90
65462;DHT22;53236;43.666;18.444;2023-08-07T02:07:08;11.70;99.90
65462;DHT22;53236;43.666;18.444;2023-08-07T02:09:34;11.70;99.90
65462;DHT22;53236;43.666;18.444;2023-08-07T02:12:00;11.70;99.90
65462;DHT22;53236;43.666;18.444;2023-08-07T02:14:27;11.80;99.90
65462;DHT22;53236;43.666;18.444;2023-08-07T02:16:52;11.80;99.90
65462;DHT22;53236;43.666;18.444;2023-08-07T02:19:18;11.80;99.90
65462;DHT22;53236;43.666;18.444;2023-08-07T02:21:44;11.80;99.90
65462;DHT22;53236;43.666;18.444;2023-08-07T02:24:10;11.90;99.90
65462;DHT22;53236;43.666;18.444;2023-08-07T02:26:35;11.90;99.90
65462;DHT22;53236;43.666;18.444;2023-08-07T02:29:01;11.80;99.90
65462;DHT22;53236;43.666;18.444;2023-08-07T02:31:28;11.70;99.90
65462;DHT22;53236;43.666;18.444;2023-08-07T02:33:54;11.70;99.90
65462;DHT22;53236;43.666;18.444;2023-08-07T02:36:19;11.70;99.90
65462;DHT22;53236;43.666;18.444;2023-08-07T02:38:45;11.70;99.90
65462;DHT22;53236;43.666;18.444;2023-08-07T02:41:11;11.80;99.90
65462;DHT22;53236;43.666;18.444;2023-08-07T02:43:36;11.80;99.90
65462;DHT22;53236;43.666;18.444;2023-08-07T02:46:02;11.80;99.90
65462;DHT22;53236;43.666;18.444;2023-08-07T02:48:28;11.80;99.90
65462;DHT22;53236;43.666;18.444;2023-08-07T02:50:53;11.80;99.90
65462;DHT22;53236;43.666;18.444;2023-08-07T02:53:19;11.80;99.90
65462;DHT22;53236;43.666;18.444;2023-08-07T02:55:45;11.90;99.90
65462;DHT22;53236;43.666;18.444;2023-08-07T02:58:11;11.90;99.90
65462;DHT22;53236;43.666;18.444;2023-08-07T03:00:37;11.90;99.90
65462;DHT22;53236;43.666;18.444;2023-08-07T03:03:02;11.90;99.90
65462;DHT22;53236;43.666;18.444;2023-08-07T03:05:28;12.00;99.90
65462;DHT22;53236;43.666;18.444;2023-08-07T03:07:54;12.00;99.90
65462;DHT22;53236;43.666;18.444;2023-08-07T03:10:20;12.00;99.90
65462;DHT22;53236;43.666;18.444;2023-08-07T03:12:46;12.00;99.90
65462;DHT22;53236;43.666;18.444;2023-08-07T03:15:12;12.00;99.90
65462;DHT22;53236;43.666;18.444;2023-08-07T03:17:38;12.00;99.90
65462;DHT22;53236;43.666;18.444;2023-08-07T03:20:04;12.00;99.90
65462;DHT22;53236;43.666;18.444;2023-08-07T03:22:30;11.90;99.90
65462;DHT22;53236;43.666;18.444;2023-08-07T03:24:55;11.90;99.90
65462;DHT22;53236;43.666;18.444;2023-08-07T03:27:21;11.90;99.90
65462;DHT22;53236;43.666;18.444;2023-08-07T03:29:47;12.00;99.90
65462;DHT22;53236;43.666;18.444;2023-08-07T03:32:13;12.10;99.90
65462;DHT22;53236;43.666;18.444;2023-08-07T03:34:38;12.10;99.90
65462;DHT22;53236;43.666;18.444;2023-08-07T03:37:04;12.10;99.90
65462;DHT22;53236;43.666;18.444;2023-08-07T03:39:30;12.00;99.90
65462;DHT22;53236;43.666;18.444;2023-08-07T03:41:56;11.90;99.90
65462;DHT22;53236;43.666;18.444;2023-08-07T03:44:21;11.80;99.90
65462;DHT22;53236;43.666;18.444;2023-08-07T03:46:47;11.70;99.90
65462;DHT22;53236;43.666;18.444;2023-08-07T03:49:14;11.60;99.90
65462;DHT22;53236;43.666;18.444;2023-08-07T03:51:39;11.60;99.90
65462;DHT22;53236;43.666;18.444;2023-08-07T03:54:06;11.70;99.90
65462;DHT22;53236;43.666;18.444;2023-08-07T03:56:31;11.70;99.90
65462;DHT22;53236;43.666;18.444;2023-08-07T03:59:02;11.80;99.90
65462;DHT22;53236;43.666;18.444;2023-08-07T04:01:28;11.70;99.90
65462;DHT22;53236;43.666;18.444;2023-08-07T04:03:53;11.70;99.90
65462;DHT22;53236;43.666;18.444;2023-08-07T04:06:19;11.80;99.90
65462;DHT22;53236;43.666;18.444;2023-08-07T04:08:46;11.90;99.90
65462;DHT22;53236;43.666;18.444;2023-08-07T04:11:12;11.90;99.90
65462;DHT22;53236;43.666;18.444;2023-08-07T04:13:38;12.00;99.90
65462;DHT22;53236;43.666;18.444;2023-08-07T04:16:04;12.00;99.90
65462;DHT22;53236;43.666;18.444;2023-08-07T04:18:33;12.00;99.90
65462;DHT22;53236;43.666;18.444;2023-08-07T04:20:59;12.10;99.90
65462;DHT22;53236;43.666;18.444;2023-08-07T04:23:25;12.10;99.90
65462;DHT22;53236;43.666;18.444;2023-08-07T04:25:52;11.80;99.90
65462;DHT22;53236;43.666;18.444;2023-08-07T04:28:18;11.90;99.90
65462;DHT22;53236;43.666;18.444;2023-08-07T04:30:45;11.90;99.90
65462;DHT22;53236;43.666;18.444;2023-08-07T04:33:14;11.90;99.90
65462;DHT22;53236;43.666;18.444;2023-08-07T04:35:40;12.10;99.90
65462;DHT22;53236;43.666;18.444;2023-08-07T04:38:05;12.20;99.90
65462;DHT22;53236;43.666;18.444;2023-08-07T04:40:31;12.30;99.90
65462;DHT22;53236;43.666;18.444;2023-08-07T04:42:57;12.40;99.90
65462;DHT22;53236;43.666;18.444;2023-08-07T04:45:23;12.50;99.90
65462;DHT22;53236;43.666;18.444;2023-08-07T04:47:48;12.40;99.90
65462;DHT22;53236;43.666;18.444;2023-08-07T04:50:14;12.50;99.90
65462;DHT22;53236;43.666;18.444;2023-08-07T04:52:40;12.60;99.90
65462;DHT22;53236;43.666;18.444;2023-08-07T04:55:06;12.60;99.90
65462;DHT22;53236;43.666;18.444;2023-08-07T04:57:32;12.60;99.90
65462;DHT22;53236;43.666;18.444;2023-08-07T04:59:57;12.60;99.90
65462;DHT22;53236;43.666;18.444;2023-08-07T05:02:23;12.80;99.90
65462;DHT22;53236;43.666;18.444;2023-08-07T05:04:49;12.80;99.90
65462;DHT22;53236;43.666;18.444;2023-08-07T05:07:14;12.90;99.90
65462;DHT22;53236;43.666;18.444;2023-08-07T05:09:40;13.00;99.90
65462;DHT22;53236;43.666;18.444;2023-08-07T05:12:06;13.00;99.90
65462;DHT22;53236;43.666;18.444;2023-08-07T05:14:33;13.10;99.90
65462;DHT22;53236;43.666;18.444;2023-08-07T05:16:59;13.00;99.90
65462;DHT22;53236;43.666;18.444;2023-08-07T05:19:27;13.20;99.90
65462;DHT22;53236;43.666;18.444;2023-08-07T05:21:53;13.50;99.90
65462;DHT22;53236;43.666;18.444;2023-08-07T05:24:18;14.10;99.90
65462;DHT22;53236;43.666;18.444;2023-08-07T05:26:45;15.40;99.90
65462;DHT22;53236;43.666;18.444;2023-08-07T05:29:10;17.40;99.90
65462;DHT22;53236;43.666;18.444;2023-08-07T05:31:36;20.20;99.90
65462;DHT22;53236;43.666;18.444;2023-08-07T05:34:02;22.50;91.40
65462;DHT22;53236;43.666;18.444;2023-08-07T05:36:28;22.50;83.90
65462;DHT22;53236;43.666;18.444;2023-08-07T05:38:55;21.90;81.50
65462;DHT22;53236;43.666;18.444;2023-08-07T05:41:21;21.60;86.10
65462;DHT22;53236;43.666;18.444;2023-08-07T05:43:47;21.60;88.20
65462;DHT22;53236;43.666;18.444;2023-08-07T05:46:12;21.30;90.20
65462;DHT22;53236;43.666;18.444;2023-08-07T05:48:40;20.90;86.60
65462;DHT22;53236;43.666;18.444;2023-08-07T05:51:06;21.00;93.10
65462;DHT22;53236;43.666;18.444;2023-08-07T05:53:33;23.20;86.70
65462;DHT22;53236;43.666;18.444;2023-08-07T05:55:59;25.30;75.00
65462;DHT22;53236;43.666;18.444;2023-08-07T05:58:25;24.10;71.00
65462;DHT22;53236;43.666;18.444;2023-08-07T06:00:51;23.80;72.60
65462;DHT22;53236;43.666;18.444;2023-08-07T06:03:17;24.80;72.50
65462;DHT22;53236;43.666;18.444;2023-08-07T06:05:42;27.00;67.50
65462;DHT22;53236;43.666;18.444;2023-08-07T06:08:08;29.80;61.80
65462;DHT22;53236;43.666;18.444;2023-08-07T06:10:34;29.90;57.20
65462;DHT22;53236;43.666;18.444;2023-08-07T06:13:00;30.40;56.40
65462;DHT22;53236;43.666;18.444;2023-08-07T06:15:25;30.60;55.50
65462;DHT22;53236;43.666;18.444;2023-08-07T06:17:52;31.80;54.10
65462;DHT22;53236;43.666;18.444;2023-08-07T06:20:18;31.30;54.70
65462;DHT22;53236;43.666;18.444;2023-08-07T06:22:44;30.00;54.00
65462;DHT22;53236;43.666;18.444;2023-08-07T06:25:10;29.30;55.70
65462;DHT22;53236;43.666;18.444;2023-08-07T06:27:35;29.10;57.40
65462;DHT22;53236;43.666;18.444;2023-08-07T06:30:01;28.50;56.20
65462;DHT22;53236;43.666;18.444;2023-08-07T06:32:27;27.70;58.50
65462;DHT22;53236;43.666;18.444;2023-08-07T06:34:53;26.60;59.70
65462;DHT22;53236;43.666;18.444;2023-08-07T06:37:19;26.70;60.00
65462;DHT22;53236;43.666;18.444;2023-08-07T06:39:45;27.70;61.50
65462;DHT22;53236;43.666;18.444;2023-08-07T06:42:12;28.70;58.60
65462;DHT22;53236;43.666;18.444;2023-08-07T06:44:37;28.70;57.70
65462;DHT22;53236;43.666;18.444;2023-08-07T06:47:03;28.20;57.80
65462;DHT22;53236;43.666;18.444;2023-08-07T06:49:29;27.70;59.20
65462;DHT22;53236;43.666;18.444;2023-08-07T06:51:57;26.40;60.00
65462;DHT22;53236;43.666;18.444;2023-08-07T06:54:23;25.40;63.80
65462;DHT22;53236;43.666;18.444;2023-08-07T06:56:49;25.20;66.10
65462;DHT22;53236;43.666;18.444;2023-08-07T06:59:15;26.70;63.10
65462;DHT22;53236;43.666;18.444;2023-08-07T07:01:40;29.50;59.50
65462;DHT22;53236;43.666;18.444;2023-08-07T07:04:06;32.50;53.40
65462;DHT22;53236;43.666;18.444;2023-08-07T07:06:33;35.10;50.10
65462;DHT22;53236;43.666;18.444;2023-08-07T07:08:59;36.90;47.70
65462;DHT22;53236;43.666;18.444;2023-08-07T07:11:25;36.40;45.80
65462;DHT22;53236;43.666;18.444;2023-08-07T07:13:51;37.20;45.30
65462;DHT22;53236;43.666;18.444;2023-08-07T07:16:20;38.30;42.50
65462;DHT22;53236;43.666;18.444;2023-08-07T07:18:50;37.50;42.90
65462;DHT22;53236;43.666;18.444;2023-08-07T07:21:16;37.40;43.90
65462;DHT22;53236;43.666;18.444;2023-08-07T07:23:42;36.90;45.80
65462;DHT22;53236;43.666;18.444;2023-08-07T07:26:08;35.30;45.10
65462;DHT22;53236;43.666;18.444;2023-08-07T07:28:34;35.40;45.80
65462;DHT22;53236;43.666;18.444;2023-08-07T07:31:00;35.50;45.00
65462;DHT22;53236;43.666;18.444;2023-08-07T07:33:25;34.20;45.20
65462;DHT22;53236;43.666;18.444;2023-08-07T07:35:51;34.30;46.20
65462;DHT22;53236;43.666;18.444;2023-08-07T07:38:17;35.30;44.80
65462;DHT22;53236;43.666;18.444;2023-08-07T07:40:43;35.20;44.20
65462;DHT22;53236;43.666;18.444;2023-08-07T07:43:08;34.50;46.40
65462;DHT22;53236;43.666;18.444;2023-08-07T07:45:34;34.80;45.30
65462;DHT22;53236;43.666;18.444;2023-08-07T07:48:04;34.00;44.70
65462;DHT22;53236;43.666;18.444;2023-08-07T07:50:31;33.40;47.70
65462;DHT22;53236;43.666;18.444;2023-08-07T07:52:57;32.20;47.30
65462;DHT22;53236;43.666;18.444;2023-08-07T07:55:24;32.30;48.20
65462;DHT22;53236;43.666;18.444;2023-08-07T07:57:51;32.30;48.10
65462;DHT22;53236;43.666;18.444;2023-08-07T08:00:16;34.60;47.40
65462;DHT22;53236;43.666;18.444;2023-08-07T08:02:43;37.00;44.70
65462;DHT22;53236;43.666;18.444;2023-08-07T08:05:09;38.90;42.80
65462;DHT22;53236;43.666;18.444;2023-08-07T08:07:38;39.90;40.20
65462;DHT22;53236;43.666;18.444;2023-08-07T08:10:08;40.50;39.10
65462;DHT22;53236;43.666;18.444;2023-08-07T08:12:35;40.90;39.40
65462;DHT22;53236;43.666;18.444;2023-08-07T08:15:02;40.70;40.00
65462;DHT22;53236;43.666;18.444;2023-08-07T08:17:28;42.40;38.80
65462;DHT22;53236;43.666;18.444;2023-08-07T08:19:54;42.70;38.50
65462;DHT22;53236;43.666;18.444;2023-08-07T08:22:20;44.40;38.10
65462;DHT22;53236;43.666;18.444;2023-08-07T08:24:47;43.00;37.70
65462;DHT22;53236;43.666;18.444;2023-08-07T08:27:15;43.90;37.00
65462;DHT22;53236;43.666;18.444;2023-08-07T08:29:42;45.00;35.40
65462;DHT22;53236;43.666;18.444;2023-08-07T08:32:08;44.70;35.00
65462;DHT22;53236;43.666;18.444;2023-08-07T08:34:34;44.70;34.30
65462;DHT22;53236;43.666;18.444;2023-08-07T08:37:00;45.40;34.50
65462;DHT22;53236;43.666;18.444;2023-08-07T08:39:26;45.80;33.90
65462;DHT22;53236;43.666;18.444;2023-08-07T08:41:52;44.90;34.50
65462;DHT22;53236;43.666;18.444;2023-08-07T08:44:19;43.70;33.70
65462;DHT22;53236;43.666;18.444;2023-08-07T08:46:49;41.00;36.00
65462;DHT22;53236;43.666;18.444;2023-08-07T08:49:23;40.90;36.60
65462;DHT22;53236;43.666;18.444;2023-08-07T08:51:53;40.00;35.80
65462;DHT22;53236;43.666;18.444;2023-08-07T08:54:19;38.40;37.30
65462;DHT22;53236;43.666;18.444;2023-08-07T08:56:45;36.30;39.80
65462;DHT22;53236;43.666;18.444;2023-08-07T08:59:11;34.10;42.30
65462;DHT22;53236;43.666;18.444;2023-08-07T09:01:37;32.90;42.70
65462;DHT22;53236;43.666;18.444;2023-08-07T09:04:04;31.90;44.90
65462;DHT22;53236;43.666;18.444;2023-08-07T09:06:32;31.70;47.00
65462;DHT22;53236;43.666;18.444;2023-08-07T09:08:58;31.80;47.60
65462;DHT22;53236;43.666;18.444;2023-08-07T09:11:26;31.30;46.50
65462;DHT22;53236;43.666;18.444;2023-08-07T09:13:54;30.20;49.30
65462;DHT22;53236;43.666;18.444;2023-08-07T09:16:21;30.00;49.20
65462;DHT22;53236;43.666;18.444;2023-08-07T09:18:50;29.40;49.60
65462;DHT22;53236;43.666;18.444;2023-08-07T09:21:17;29.50;49.20
65462;DHT22;53236;43.666;18.444;2023-08-07T09:23:44;29.20;51.10
65462;DHT22;53236;43.666;18.444;2023-08-07T09:26:10;28.20;54.80
65462;DHT22;53236;43.666;18.444;2023-08-07T09:28:36;27.40;54.00
65462;DHT22;53236;43.666;18.444;2023-08-07T09:31:02;27.20;56.30
65462;DHT22;53236;43.666;18.444;2023-08-07T09:33:31;27.40;55.20
65462;DHT22;53236;43.666;18.444;2023-08-07T09:36:01;27.60;55.90
65462;DHT22;53236;43.666;18.444;2023-08-07T09:38:33;27.50;55.90
65462;DHT22;53236;43.666;18.444;2023-08-07T09:40:59;27.20;56.20
65462;DHT22;53236;43.666;18.444;2023-08-07T09:43:25;27.00;54.80
65462;DHT22;53236;43.666;18.444;2023-08-07T09:45:51;26.70;56.60
65462;DHT22;53236;43.666;18.444;2023-08-07T09:48:24;27.20;57.10
65462;DHT22;53236;43.666;18.444;2023-08-07T09:50:54;27.30;55.50
65462;DHT22;53236;43.666;18.444;2023-08-07T09:53:26;27.00;57.70
65462;DHT22;53236;43.666;18.444;2023-08-07T09:55:56;26.70;58.20
65462;DHT22;53236;43.666;18.444;2023-08-07T09:58:23;26.40;58.20
65462;DHT22;53236;43.666;18.444;2023-08-07T10:00:49;25.70;57.50
65462;DHT22;53236;43.666;18.444;2023-08-07T10:03:15;24.90;59.40
65462;DHT22;53236;43.666;18.444;2023-08-07T10:05:45;24.40;61.80
65462;DHT22;53236;43.666;18.444;2023-08-07T10:08:12;24.10;64.50
65462;DHT22;53236;43.666;18.444;2023-08-07T10:10:38;23.80;65.30
65462;DHT22;53236;43.666;18.444;2023-08-07T10:13:05;23.80;64.30
65462;DHT22;53236;43.666;18.444;2023-08-07T10:15:32;23.70;65.30
65462;DHT22;53236;43.666;18.444;2023-08-07T10:17:58;23.70;65.10
65462;DHT22;53236;43.666;18.444;2023-08-07T10:20:28;23.40;63.00
65462;DHT22;53236;43.666;18.444;2023-08-07T10:22:59;23.40;63.40
65462;DHT22;53236;43.666;18.444;2023-08-07T10:25:28;23.60;63.10
65462;DHT22;53236;43.666;18.444;2023-08-07T10:27:55;23.70;62.30
65462;DHT22;53236;43.666;18.444;2023-08-07T10:30:23;23.90;63.00
65462;DHT22;53236;43.666;18.444;2023-08-07T10:32:50;24.30;64.00
65462;DHT22;53236;43.666;18.444;2023-08-07T10:35:33;24.40;61.30
65462;DHT22;53236;43.666;18.444;2023-08-07T10:38:06;24.60;61.00
65462;DHT22;53236;43.666;18.444;2023-08-07T10:40:33;24.30;63.00
65462;DHT22;53236;43.666;18.444;2023-08-07T10:45:34;24.00;65.10
65462;DHT22;53236;43.666;18.444;2023-08-07T10:48:12;24.00;62.90
65462;DHT22;53236;43.666;18.444;2023-08-07T10:53:42;23.90;63.30
65462;DHT22;53236;43.666;18.444;2023-08-07T10:56:11;24.30;63.30
65462;DHT22;53236;43.666;18.444;2023-08-07T10:58:41;24.30;63.60
65462;DHT22;53236;43.666;18.444;2023-08-07T11:06:22;23.90;64.80
65462;DHT22;53236;43.666;18.444;2023-08-07T11:08:49;24.30;66.10
65462;DHT22;53236;43.666;18.444;2023-08-07T11:11:15;24.50;64.00
65462;DHT22;53236;43.666;18.444;2023-08-07T11:13:41;24.60;64.50
65462;DHT22;53236;43.666;18.444;2023-08-07T11:16:06;25.10;64.20
65462;DHT22;53236;43.666;18.444;2023-08-07T11:18:33;25.10;62.10
65462;DHT22;53236;43.666;18.444;2023-08-07T11:21:01;25.20;64.40
65462;DHT22;53236;43.666;18.444;2023-08-07T11:23:28;25.10;61.10
65462;DHT22;53236;43.666;18.444;2023-08-07T11:25:54;25.20;63.90
65462;DHT22;53236;43.666;18.444;2023-08-07T11:28:21;25.10;64.90
65462;DHT22;53236;43.666;18.444;2023-08-07T11:30:50;24.70;63.30
65462;DHT22;53236;43.666;18.444;2023-08-07T11:33:21;24.50;63.20
65462;DHT22;53236;43.666;18.444;2023-08-07T11:35:48;24.40;64.40
65462;DHT22;53236;43.666;18.444;2023-08-07T11:38:36;24.00;63.80
65462;DHT22;53236;43.666;18.444;2023-08-07T11:41:03;23.70;66.70
65462;DHT22;53236;43.666;18.444;2023-08-07T11:43:31;23.60;67.40
65462;DHT22;53236;43.666;18.444;2023-08-07T11:45:59;23.60;65.90
65462;DHT22;53236;43.666;18.444;2023-08-07T11:48:28;23.70;66.10
65462;DHT22;53236;43.666;18.444;2023-08-07T11:50:55;23.60;67.50
65462;DHT22;53236;43.666;18.444;2023-08-07T11:53:22;23.80;69.30
65462;DHT22;53236;43.666;18.444;2023-08-07T11:56:05;23.90;67.30
65462;DHT22;53236;43.666;18.444;2023-08-07T11:58:45;23.80;67.60
65462;DHT22;53236;43.666;18.444;2023-08-07T12:01:22;23.80;68.00
65462;DHT22;53236;43.666;18.444;2023-08-07T12:06:36;23.30;68.50
65462;DHT22;53236;43.666;18.444;2023-08-07T12:09:05;23.30;69.80
65462;DHT22;53236;43.666;18.444;2023-08-07T12:11:38;23.00;67.80
65462;DHT22;53236;43.666;18.444;2023-08-07T12:14:04;22.30;70.50
65462;DHT22;53236;43.666;18.444;2023-08-07T12:16:34;21.50;72.00
65462;DHT22;53236;43.666;18.444;2023-08-07T12:19:00;21.40;71.70
65462;DHT22;53236;43.666;18.444;2023-08-07T12:21:27;21.00;69.70
65462;DHT22;53236;43.666;18.444;2023-08-07T12:23:56;20.20;67.50
65462;DHT22;53236;43.666;18.444;2023-08-07T12:26:22;19.80;67.70
65462;DHT22;53236;43.666;18.444;2023-08-07T12:28:48;19.70;68.70
65462;DHT22;53236;43.666;18.444;2023-08-07T12:31:13;19.70;66.90
65462;DHT22;53236;43.666;18.444;2023-08-07T12:33:39;19.90;66.90
65462;DHT22;53236;43.666;18.444;2023-08-07T12:36:05;19.80;66.70
65462;DHT22;53236;43.666;18.444;2023-08-07T12:38:31;19.90;65.60
65462;DHT22;53236;43.666;18.444;2023-08-07T12:40:56;19.50;65.70
65462;DHT22;53236;43.666;18.444;2023-08-07T12:43:23;19.50;67.90
65462;DHT22;53236;43.666;18.444;2023-08-07T12:45:48;19.60;67.30
65462;DHT22;53236;43.666;18.444;2023-08-07T12:48:14;19.80;66.30
65462;DHT22;53236;43.666;18.444;2023-08-07T12:50:40;19.90;63.80
65462;DHT22;53236;43.666;18.444;2023-08-07T12:53:07;19.90;64.90
65462;DHT22;53236;43.666;18.444;2023-08-07T12:55:33;19.90;65.10
65462;DHT22;53236;43.666;18.444;2023-08-07T12:57:59;19.90;64.80
65462;DHT22;53236;43.666;18.444;2023-08-07T13:00:25;19.90;62.50
65462;DHT22;53236;43.666;18.444;2023-08-07T13:02:52;19.70;64.90
65462;DHT22;53236;43.666;18.444;2023-08-07T13:05:20;19.70;63.30
65462;DHT22;53236;43.666;18.444;2023-08-07T13:07:48;19.60;64.70
65462;DHT22;53236;43.666;18.444;2023-08-07T13:10:15;19.50;64.80
65462;DHT22;53236;43.666;18.444;2023-08-07T13:12:44;19.40;63.00
65462;DHT22;53236;43.666;18.444;2023-08-07T13:15:13;19.20;63.80
65462;DHT22;53236;43.666;18.444;2023-08-07T13:17:39;19.10;66.40
65462;DHT22;53236;43.666;18.444;2023-08-07T13:20:05;19.10;65.30
65462;DHT22;53236;43.666;18.444;2023-08-07T13:22:36;19.20;66.60
65462;DHT22;53236;43.666;18.444;2023-08-07T13:25:02;19.30;65.10
65462;DHT22;53236;43.666;18.444;2023-08-07T13:27:29;19.40;64.00
65462;DHT22;53236;43.666;18.444;2023-08-07T13:29:56;19.70;66.40
65462;DHT22;53236;43.666;18.444;2023-08-07T13:32:21;19.90;62.30
65462;DHT22;53236;43.666;18.444;2023-08-07T13:34:47;20.00;64.00
65462;DHT22;53236;43.666;18.444;2023-08-07T13:37:13;20.20;63.10
65462;DHT22;53236;43.666;18.444;2023-08-07T13:39:40;20.30;67.00
65462;DHT22;53236;43.666;18.444;2023-08-07T13:42:06;20.20;64.60
65462;DHT22;53236;43.666;18.444;2023-08-07T13:44:32;20.20;64.00
65462;DHT22;53236;43.666;18.444;2023-08-07T13:46:58;20.10;67.10
65462;DHT22;53236;43.666;18.444;2023-08-07T13:49:24;20.30;67.40
65462;DHT22;53236;43.666;18.444;2023-08-07T13:51:50;20.40;67.30
65462;DHT22;53236;43.666;18.444;2023-08-07T13:54:16;20.50;66.50
65462;DHT22;53236;43.666;18.444;2023-08-07T13:56:42;20.30;65.70
65462;DHT22;53236;43.666;18.444;2023-08-07T13:59:07;20.20;67.80
65462;DHT22;53236;43.666;18.444;2023-08-07T14:01:34;20.20;66.80
65462;DHT22;53236;43.666;18.444;2023-08-07T14:04:01;20.10;66.80
65462;DHT22;53236;43.666;18.444;2023-08-07T14:06:27;20.10;67.40
65462;DHT22;53236;43.666;18.444;2023-08-07T14:08:53;20.10;67.50
65462;DHT22;53236;43.666;18.444;2023-08-07T14:11:20;20.20;67.40
65462;DHT22;53236;43.666;18.444;2023-08-07T14:13:46;19.90;68.10
65462;DHT22;53236;43.666;18.444;2023-08-07T14:16:13;19.70;69.00
65462;DHT22;53236;43.666;18.444;2023-08-07T14:18:39;19.40;69.30
65462;DHT22;53236;43.666;18.444;2023-08-07T14:21:04;19.50;71.40
65462;DHT22;53236;43.666;18.444;2023-08-07T14:23:31;19.40;72.80
65462;DHT22;53236;43.666;18.444;2023-08-07T14:25:57;19.40;71.60
65462;DHT22;53236;43.666;18.444;2023-08-07T14:28:22;19.20;71.60
65462;DHT22;53236;43.666;18.444;2023-08-07T14:30:51;19.20;72.90
65462;DHT22;53236;43.666;18.444;2023-08-07T14:33:17;18.90;75.10
65462;DHT22;53236;43.666;18.444;2023-08-07T14:35:43;18.90;75.90
65462;DHT22;53236;43.666;18.444;2023-08-07T14:38:08;19.10;78.00
65462;DHT22;53236;43.666;18.444;2023-08-07T14:40:34;19.00;76.60
65462;DHT22;53236;43.666;18.444;2023-08-07T14:43:03;19.00;77.50
65462;DHT22;53236;43.666;18.444;2023-08-07T14:45:29;18.60;80.80
65462;DHT22;53236;43.666;18.444;2023-08-07T14:47:54;18.10;88.40
65462;DHT22;53236;43.666;18.444;2023-08-07T14:50:20;17.60;95.00
65462;DHT22;53236;43.666;18.444;2023-08-07T14:52:46;17.20;99.90
65462;DHT22;53236;43.666;18.444;2023-08-07T14:55:11;16.40;99.90
65462;DHT22;53236;43.666;18.444;2023-08-07T14:57:37;16.00;99.90
65462;DHT22;53236;43.666;18.444;2023-08-07T15:00:03;15.90;99.90
65462;DHT22;53236;43.666;18.444;2023-08-07T15:02:31;15.70;99.90
65462;DHT22;53236;43.666;18.444;2023-08-07T15:04:56;15.50;99.90
65462;DHT22;53236;43.666;18.444;2023-08-07T15:07:22;15.30;99.90
65462;DHT22;53236;43.666;18.444;2023-08-07T15:09:48;14.90;99.90
65462;DHT22;53236;43.666;18.444;2023-08-07T15:12:16;15.00;99.90
65462;DHT22;53236;43.666;18.444;2023-08-07T15:14:42;14.80;99.90
65462;DHT22;53236;43.666;18.444;2023-08-07T15:17:08;14.70;99.90
65462;DHT22;53236;43.666;18.444;2023-08-07T15:19:34;14.60;99.90
65462;DHT22;53236;43.666;18.444;2023-08-07T15:22:00;14.50;99.90
65462;DHT22;53236;43.666;18.444;2023-08-07T15:24:25;14.30;99.90
65462;DHT22;53236;43.666;18.444;2023-08-07T15:26:51;14.30;99.90
65462;DHT22;53236;43.666;18.444;2023-08-07T15:29:17;14.30;99.90
65462;DHT22;53236;43.666;18.444;2023-08-07T15:31:43;14.40;99.90